Time;durP1;ratioP1;P1;durP2;ratioP2;P2;SDS_P1;SDS_P2;PMS_P1;PMS_P2;Temp;Humidity;BMP_temperature;BMP_pressure;BME280_temperature;BME280_humidity;BME280_pressure;Samples;Min_cycle;Max_cycle;Signal;HPM_P1;HPM_P2
2022/04/20 00:00:51;;;;;;;10.10;5.53;;;16.40;49.20;;;;;;4913256;29;20787;-94
2022/04/20 00:03:20;;;;;;;8.70;4.47;;;16.40;49.30;;;;;;4914133;29;20622;-93
2022/04/20 00:05:47;;;;;;;8.43;4.67;;;16.30;49.20;;;;;;4916257;29;20228;-94
2022/04/20 00:08:14;;;;;;;6.97;4.57;;;16.30;49.20;;;;;;4914927;29;20213;-94
2022/04/20 00:10:41;;;;;;;7.30;4.50;;;16.30;49.20;;;;;;4915667;29;20735;-93
2022/04/20 00:13:09;;;;;;;9.43;5.27;;;16.30;49.20;;;;;;4901947;29;20216;-91
2022/04/20 00:15:36;;;;;;;8.50;5.07;;;16.20;49.20;;;;;;4912251;29;20285;-94
2022/04/20 00:18:04;;;;;;;10.97;5.90;;;16.20;49.30;;;;;;4915071;29;20209;-92
2022/04/20 00:20:33;;;;;;;12.77;5.70;;;16.10;49.20;;;;;;4911689;29;20258;-91
2022/04/20 00:23:01;;;;;;;10.33;5.63;;;16.20;49.60;;;;;;4920841;29;20236;-95
2022/04/20 00:25:30;;;;;;;10.27;5.37;;;16.10;49.50;;;;;;4914282;29;20347;-96
2022/04/20 00:27:57;;;;;;;14.63;5.20;;;16.10;49.40;;;;;;4903708;29;20212;-93
2022/04/20 00:30:24;;;;;;;10.83;5.33;;;16.10;50.00;;;;;;4896275;29;20298;-91
2022/04/20 00:32:51;;;;;;;14.43;6.17;;;16.00;49.30;;;;;;4907899;29;20319;-94
2022/04/20 00:35:18;;;;;;;8.23;4.80;;;16.00;49.30;;;;;;4913615;29;20210;-93
2022/04/20 00:37:47;;;;;;;10.07;5.00;;;16.00;49.40;;;;;;4912908;29;20212;-92
2022/04/20 00:40:15;;;;;;;10.10;5.17;;;15.90;49.40;;;;;;4914320;29;20228;-94
2022/04/20 00:42:43;;;;;;;11.30;4.97;;;15.90;49.40;;;;;;4913382;29;20250;-93
2022/04/20 00:45:12;;;;;;;8.57;4.63;;;15.90;49.40;;;;;;4914298;29;20198;-92
2022/04/20 00:47:42;;;;;;;12.93;5.00;;;15.80;49.40;;;;;;4912972;29;20216;-91
2022/04/20 00:50:10;;;;;;;9.33;4.70;;;15.80;49.70;;;;;;4914491;29;20296;-90
2022/04/20 00:52:41;;;;;;;9.03;4.47;;;15.70;49.60;;;;;;4912412;29;20347;-91
2022/04/20 00:55:11;;;;;;;10.80;5.10;;;15.60;49.70;;;;;;4913569;29;20206;-92
2022/04/20 00:57:39;;;;;;;5.73;3.63;;;15.60;49.80;;;;;;4913435;29;20270;-93
2022/04/20 01:00:07;;;;;;;8.80;4.90;;;15.60;49.90;;;;;;4914666;29;20766;-91
2022/04/20 01:02:35;;;;;;;7.70;4.27;;;15.50;49.80;;;;;;4912976;29;20211;-94
2022/04/20 01:05:03;;;;;;;7.33;4.07;;;15.50;49.90;;;;;;4913600;29;20208;-91
2022/04/20 01:07:36;;;;;;;10.20;4.73;;;15.40;49.80;;;;;;4906310;29;20210;-90
2022/04/20 01:10:04;;;;;;;10.43;5.07;;;15.40;49.90;;;;;;4911334;29;20266;-94
2022/04/20 01:12:33;;;;;;;8.83;4.30;;;15.40;49.80;;;;;;4913268;29;20218;-92
2022/04/20 01:15:00;;;;;;;10.43;4.50;;;15.30;49.90;;;;;;4917898;29;20290;-92
2022/04/20 01:17:28;;;;;;;10.40;4.73;;;15.40;49.90;;;;;;4883895;29;20664;-91
2022/04/20 01:19:55;;;;;;;15.50;5.80;;;15.30;49.90;;;;;;4916742;29;20234;-90
2022/04/20 01:22:23;;;;;;;16.27;6.33;;;15.30;49.90;;;;;;4916182;29;20315;-90
2022/04/20 01:24:51;;;;;;;7.83;3.83;;;15.30;49.90;;;;;;4918000;29;20257;-94
2022/04/20 01:27:18;;;;;;;19.13;6.93;;;15.30;49.90;;;;;;4914972;29;20582;-90
2022/04/20 01:29:46;;;;;;;13.17;5.10;;;15.30;49.80;;;;;;4917447;29;20233;-93
2022/04/20 01:32:13;;;;;;;10.53;4.50;;;15.30;49.90;;;;;;4915362;29;20224;-95
2022/04/20 01:34:41;;;;;;;12.60;4.80;;;15.20;49.70;;;;;;4905434;29;20296;-92
2022/04/20 01:37:09;;;;;;;9.67;4.40;;;15.20;49.80;;;;;;4915987;29;20209;-92
2022/04/20 01:39:37;;;;;;;12.70;5.07;;;15.20;49.70;;;;;;4914471;29;20203;-94
2022/04/20 01:42:05;;;;;;;11.60;5.00;;;15.20;49.70;;;;;;4917726;29;20230;-92
2022/04/20 01:44:32;;;;;;;8.07;4.07;;;15.30;49.70;;;;;;4916574;29;20308;-96
2022/04/20 01:46:59;;;;;;;12.57;4.33;;;15.30;49.60;;;;;;4918771;29;20299;-94
2022/04/20 01:49:28;;;;;;;9.90;4.57;;;15.20;49.50;;;;;;4915486;29;20283;-91
2022/04/20 01:51:57;;;;;;;10.97;4.87;;;15.20;49.50;;;;;;4916023;29;20210;-96
2022/04/20 01:54:24;;;;;;;6.50;3.73;;;15.20;49.50;;;;;;4905054;29;20224;-93
2022/04/20 01:56:53;;;;;;;10.30;4.40;;;15.20;49.50;;;;;;4917119;29;20250;-92
2022/04/20 01:59:21;;;;;;;8.93;4.00;;;15.20;49.50;;;;;;4917111;29;20204;-94
2022/04/20 02:04:35;;;;;;;13.30;5.43;;;15.20;49.50;;;;;;4916456;29;20240;-91
2022/04/20 02:07:02;;;;;;;9.30;4.43;;;15.20;49.40;;;;;;4916871;29;20199;-95
2022/04/20 02:09:29;;;;;;;8.97;4.23;;;15.20;49.40;;;;;;4917022;29;20248;-93
2022/04/20 02:11:59;;;;;;;13.80;5.03;;;15.20;49.50;;;;;;4916649;29;20661;-90
2022/04/20 02:14:26;;;;;;;10.27;4.43;;;15.20;49.50;;;;;;4915877;29;20217;-92
2022/04/20 02:16:53;;;;;;;12.90;4.63;;;15.20;49.50;;;;;;4927750;29;20222;-92
2022/04/20 02:19:24;;;;;;;11.83;4.50;;;15.20;49.60;;;;;;4916422;29;20209;-94
2022/04/20 02:21:51;;;;;;;8.37;4.27;;;15.20;49.70;;;;;;4914373;29;20226;-91
2022/04/20 02:24:18;;;;;;;10.47;5.17;;;15.20;50.40;;;;;;4916499;29;20201;-95
2022/04/20 02:26:45;;;;;;;10.07;4.57;;;15.20;49.90;;;;;;4916849;29;20296;-91
2022/04/20 02:29:13;;;;;;;12.27;5.00;;;15.20;50.00;;;;;;4916485;29;20258;-95
2022/04/20 02:31:40;;;;;;;12.33;4.57;;;15.20;50.00;;;;;;4915013;29;20223;-90
2022/04/20 02:34:07;;;;;;;11.13;4.77;;;15.10;50.00;;;;;;4915658;29;20305;-92
2022/04/20 02:36:34;;;;;;;10.63;5.23;;;15.10;50.10;;;;;;4914146;29;20202;-92
2022/04/20 02:39:04;;;;;;;9.47;4.63;;;15.10;50.20;;;;;;4916676;29;20220;-94
2022/04/20 02:41:31;;;;;;;10.83;4.70;;;15.10;50.40;;;;;;4918277;29;20332;-95
2022/04/20 02:43:59;;;;;;;5.93;3.53;;;15.00;50.40;;;;;;4915799;29;20246;-92
2022/04/20 02:46:28;;;;;;;12.90;5.60;;;15.00;50.50;;;;;;4913780;29;20260;-93
2022/04/20 02:48:55;;;;;;;9.17;4.10;;;15.00;50.50;;;;;;4915948;29;20203;-93
2022/04/20 02:51:28;;;;;;;9.07;4.53;;;15.00;50.60;;;;;;4914060;29;20278;-94
2022/04/20 02:53:55;;;;;;;9.40;4.77;;;15.00;51.00;;;;;;4915733;29;20288;-94
2022/04/20 02:56:22;;;;;;;7.43;4.03;;;15.00;50.90;;;;;;4914796;29;20376;-92
2022/04/20 02:58:50;;;;;;;10.83;4.27;;;14.90;51.00;;;;;;4913971;29;20624;-90
2022/04/20 03:01:17;;;;;;;12.43;5.23;;;14.90;51.60;;;;;;4916217;29;20243;-91
2022/04/20 03:03:46;;;;;;;10.20;4.37;;;14.80;51.00;;;;;;4909943;29;20319;-90
2022/04/20 03:06:13;;;;;;;10.27;5.13;;;14.80;51.30;;;;;;4914758;29;20292;-95
2022/04/20 03:08:41;;;;;;;6.67;4.10;;;14.70;51.30;;;;;;4915629;29;20732;-95
2022/04/20 03:11:09;;;;;;;9.23;4.40;;;14.70;51.30;;;;;;4916846;29;20449;-93
2022/04/20 03:13:36;;;;;;;9.97;4.87;;;14.70;51.30;;;;;;4906452;29;20946;-96
2022/04/20 03:16:03;;;;;;;8.43;4.77;;;14.60;51.30;;;;;;4916247;29;20307;-95
2022/04/20 03:18:32;;;;;;;14.80;6.03;;;14.60;51.40;;;;;;4914049;29;20209;-93
2022/04/20 03:21:01;;;;;;;13.50;6.07;;;14.60;51.50;;;;;;4915253;29;20256;-90
2022/04/20 03:23:30;;;;;;;14.50;6.03;;;14.60;51.80;;;;;;4913528;29;20860;-91
2022/04/20 03:25:57;;;;;;;10.23;4.73;;;14.50;52.00;;;;;;4915726;29;20725;-92
2022/04/20 03:28:24;;;;;;;24.20;9.27;;;14.50;52.00;;;;;;4914117;29;20238;-89
2022/04/20 03:30:51;;;;;;;10.03;4.97;;;14.40;52.20;;;;;;4913502;29;20712;-91
2022/04/20 03:33:18;;;;;;;23.23;9.17;;;14.40;52.30;;;;;;4912431;29;20213;-92
2022/04/20 03:35:46;;;;;;;11.90;5.83;;;14.30;52.30;;;;;;4913368;29;20209;-90
2022/04/20 03:38:15;;;;;;;14.33;6.33;;;14.30;52.60;;;;;;4912738;29;20238;-93
2022/04/20 03:40:46;;;;;;;11.67;5.93;;;14.30;52.70;;;;;;4913923;29;20239;-89
2022/04/20 03:43:13;;;;;;;11.43;5.57;;;14.30;52.70;;;;;;4914122;29;20219;-92
2022/04/20 03:45:42;;;;;;;16.00;6.77;;;14.20;52.70;;;;;;4912526;29;20201;-92
2022/04/20 03:48:10;;;;;;;21.27;7.93;;;14.20;52.70;;;;;;4912991;29;20994;-93
2022/04/20 03:50:37;;;;;;;10.93;5.67;;;14.10;52.90;;;;;;4914127;29;20220;-89
2022/04/20 03:53:04;;;;;;;12.07;6.13;;;14.10;52.90;;;;;;4913206;29;20202;-92
2022/04/20 03:55:33;;;;;;;14.23;6.40;;;14.10;53.00;;;;;;4903519;29;20340;-89
2022/04/20 03:58:00;;;;;;;11.37;5.57;;;14.00;53.00;;;;;;4912281;29;20303;-90
2022/04/20 04:00:28;;;;;;;18.50;7.47;;;14.00;53.00;;;;;;4909004;29;20222;-91
2022/04/20 04:02:55;;;;;;;12.80;5.97;;;14.00;53.00;;;;;;4912681;29;20200;-93
2022/04/20 04:05:22;;;;;;;12.73;6.10;;;14.00;53.10;;;;;;4911889;29;20264;-94
2022/04/20 04:07:50;;;;;;;18.13;7.43;;;14.00;53.20;;;;;;4916094;29;20246;-96
2022/04/20 04:10:20;;;;;;;13.60;6.27;;;13.90;53.00;;;;;;4906926;29;20243;-92
2022/04/20 04:12:48;;;;;;;9.83;6.00;;;13.90;53.60;;;;;;4915993;29;20224;-95
2022/04/20 04:15:15;;;;;;;13.60;6.43;;;13.90;53.10;;;;;;4915079;29;20276;-93
2022/04/20 04:17:42;;;;;;;10.40;5.47;;;13.90;53.20;;;;;;4915421;29;20313;-91
2022/04/20 04:20:11;;;;;;;14.33;6.57;;;13.90;53.30;;;;;;4914449;29;20723;-91
2022/04/20 04:22:40;;;;;;;12.67;6.20;;;13.90;53.50;;;;;;4913466;29;20655;-90
2022/04/20 04:25:10;;;;;;;11.80;5.77;;;13.80;53.60;;;;;;4920305;29;20201;-90
2022/04/20 04:27:37;;;;;;;13.00;6.93;;;13.80;53.50;;;;;;4913540;29;20216;-90
2022/04/20 04:30:06;;;;;;;18.20;7.97;;;13.80;53.60;;;;;;4911354;29;20294;-90
2022/04/20 04:32:34;;;;;;;13.97;6.60;;;13.80;53.60;;;;;;4911766;29;20303;-89
2022/04/20 04:35:01;;;;;;;14.17;5.80;;;13.80;53.70;;;;;;4911965;29;20205;-91
2022/04/20 04:37:29;;;;;;;16.70;7.67;;;13.70;53.60;;;;;;4913298;29;20212;-92
2022/04/20 04:39:56;;;;;;;14.97;6.20;;;13.70;53.70;;;;;;4912869;29;20213;-90
2022/04/20 04:42:24;;;;;;;11.97;6.13;;;13.70;53.70;;;;;;4913268;29;20233;-89
2022/04/20 04:44:51;;;;;;;13.07;6.43;;;13.70;53.90;;;;;;4912713;29;20214;-90
2022/04/20 04:50:06;;;;;;;12.10;6.17;;;13.60;54.00;;;;;;4911857;29;20210;-91
2022/04/20 04:52:34;;;;;;;18.73;7.83;;;13.60;53.80;;;;;;4913437;29;20650;-90
2022/04/20 04:55:01;;;;;;;13.83;6.30;;;13.60;53.90;;;;;;4912367;29;20741;-91
2022/04/20 04:57:29;;;;;;;16.73;7.40;;;13.50;53.80;;;;;;4914072;29;20224;-92
2022/04/20 04:59:56;;;;;;;13.23;6.27;;;13.50;54.00;;;;;;4913139;29;20284;-92
2022/04/20 05:02:24;;;;;;;13.43;6.33;;;13.50;54.00;;;;;;4915563;29;20232;-90
2022/04/20 05:04:51;;;;;;;12.33;6.30;;;13.50;54.30;;;;;;4910523;29;20304;-90
2022/04/20 05:07:19;;;;;;;17.90;7.77;;;13.50;54.20;;;;;;4912227;29;20629;-89
2022/04/20 05:09:46;;;;;;;12.80;6.30;;;13.40;54.90;;;;;;4912872;29;20639;-89
2022/04/20 05:12:14;;;;;;;13.97;7.10;;;13.40;54.20;;;;;;4911956;29;20746;-90
2022/04/20 05:14:42;;;;;;;15.50;6.77;;;13.40;54.30;;;;;;4912901;29;20263;-91
2022/04/20 05:17:10;;;;;;;11.70;6.07;;;13.30;54.30;;;;;;4911390;29;20307;-89
2022/04/20 05:19:38;;;;;;;12.53;5.93;;;13.30;54.30;;;;;;4896410;29;20292;-91
2022/04/20 05:22:06;;;;;;;13.77;6.37;;;13.30;54.30;;;;;;4910673;29;20260;-92
2022/04/20 05:24:35;;;;;;;13.67;6.23;;;13.20;54.10;;;;;;4910915;29;20587;-91
2022/04/20 05:27:06;;;;;;;17.53;7.20;;;13.20;54.00;;;;;;4913139;29;20393;-91
2022/04/20 05:29:33;;;;;;;14.30;6.53;;;13.20;54.10;;;;;;4912990;29;20631;-91
2022/04/20 05:32:02;;;;;;;16.73;6.77;;;13.20;54.50;;;;;;4910669;29;20232;-90
2022/04/20 05:34:30;;;;;;;9.63;5.20;;;13.20;53.80;;;;;;4912874;29;20222;-91
2022/04/20 05:42:29;;;;;;;11.03;5.77;;;13.20;54.20;;;;;;4905324;29;20243;-90
2022/04/20 05:44:56;;;;;;;17.07;7.13;;;13.20;53.60;;;;;;4910986;29;20292;-90
2022/04/20 05:47:23;;;;;;;12.00;5.70;;;13.20;53.40;;;;;;4908454;29;20295;-91
2022/04/20 05:49:51;;;;;;;15.13;6.83;;;13.20;53.60;;;;;;4909975;29;20360;-89
2022/04/20 05:52:19;;;;;;;14.73;6.10;;;13.20;53.40;;;;;;4913614;29;20233;-93
2022/04/20 05:54:46;;;;;;;11.27;5.03;;;13.20;53.30;;;;;;4912504;29;20220;-92
2022/04/20 05:57:13;;;;;;;11.70;5.70;;;13.20;53.30;;;;;;4910079;29;20726;-91
2022/04/20 05:59:40;;;;;;;11.90;5.30;;;13.20;53.30;;;;;;4912735;29;20208;-90
2022/04/20 06:02:07;;;;;;;11.03;5.37;;;13.20;53.20;;;;;;4916451;29;20349;-90
2022/04/20 06:04:35;;;;;;;15.00;6.37;;;13.20;53.20;;;;;;4913334;29;20253;-91
2022/04/20 06:07:08;;;;;;;21.90;7.80;;;13.20;53.30;;;;;;4907520;29;20243;-94
2022/04/20 06:09:37;;;;;;;21.87;7.23;;;13.30;53.30;;;;;;4904407;29;20267;-94
2022/04/20 06:12:04;;;;;;;16.17;6.63;;;13.30;53.30;;;;;;4910328;29;20241;-90
2022/04/20 06:14:31;;;;;;;14.07;6.63;;;13.30;53.30;;;;;;4912618;29;20667;-92
2022/04/20 06:16:58;;;;;;;11.03;5.37;;;13.30;53.20;;;;;;4908378;29;20214;-92
2022/04/20 06:19:25;;;;;;;18.23;7.03;;;13.30;53.20;;;;;;4897250;29;20212;-92
2022/04/20 06:21:52;;;;;;;13.93;6.23;;;13.30;53.20;;;;;;4921754;29;20314;-93
2022/04/20 06:24:20;;;;;;;16.87;6.67;;;13.30;53.20;;;;;;4909079;29;20205;-92
2022/04/20 06:26:49;;;;;;;19.20;7.97;;;13.30;53.30;;;;;;4907423;29;20332;-89
2022/04/20 06:29:16;;;;;;;16.23;7.00;;;13.40;53.30;;;;;;4904658;29;20209;-90
2022/04/20 06:31:45;;;;;;;15.70;6.70;;;13.40;53.30;;;;;;4905556;29;20709;-91
2022/04/20 06:34:12;;;;;;;14.93;6.40;;;13.40;53.20;;;;;;4910465;29;20692;-91
2022/04/20 06:36:40;;;;;;;16.53;6.57;;;13.40;53.20;;;;;;4904304;29;20217;-90
2022/04/20 06:39:07;;;;;;;17.63;6.20;;;13.40;53.20;;;;;;4908931;29;20212;-91
2022/04/20 06:41:34;;;;;;;16.63;6.90;;;13.50;53.30;;;;;;4915562;29;20308;-93
2022/04/20 06:44:03;;;;;;;14.03;6.20;;;13.50;53.30;;;;;;4912488;29;20659;-91
2022/04/20 06:46:31;;;;;;;13.90;5.87;;;13.50;53.30;;;;;;4914565;29;20283;-94
2022/04/20 06:48:58;;;;;;;14.20;6.43;;;13.50;53.30;;;;;;4917637;29;20243;-94
2022/04/20 06:51:26;;;;;;;14.97;6.77;;;13.50;53.80;;;;;;4915153;29;20222;-90
2022/04/20 06:59:24;;;;;;;10.93;5.70;;;13.60;53.20;;;;;;4904543;29;20306;-91
2022/04/20 07:01:51;;;;;;;16.53;7.07;;;13.70;53.10;;;;;;4915609;29;20233;-93
2022/04/20 07:04:18;;;;;;;14.00;7.00;;;13.70;53.00;;;;;;4912831;29;20205;-88
2022/04/20 07:06:46;;;;;;;19.87;8.03;;;13.70;53.00;;;;;;4911182;29;20236;-90
2022/04/20 07:09:13;;;;;;;15.37;7.33;;;13.70;52.80;;;;;;4914219;29;20250;-88
2022/04/20 07:11:40;;;;;;;11.63;6.43;;;13.80;52.80;;;;;;4911430;29;20298;-89
2022/04/20 07:14:07;;;;;;;12.33;6.43;;;13.80;52.60;;;;;;4912527;29;20284;-88
2022/04/20 07:16:36;;;;;;;13.53;6.13;;;13.80;52.40;;;;;;4912655;29;20585;-88
2022/04/20 07:19:03;;;;;;;11.07;5.67;;;13.80;52.40;;;;;;4914158;29;20205;-89
2022/04/20 07:21:31;;;;;;;24.93;8.70;;;13.90;52.50;;;;;;4901747;29;20224;-92
2022/04/20 07:23:58;;;;;;;17.03;6.87;;;13.90;52.40;;;;;;4904712;29;20298;-92
2022/04/20 07:26:26;;;;;;;16.40;7.37;;;13.90;52.40;;;;;;4914282;29;20245;-92
2022/04/20 07:28:55;;;;;;;12.97;6.33;;;14.00;52.50;;;;;;4910775;29;20251;-90
2022/04/20 07:31:23;;;;;;;15.70;6.87;;;14.00;52.30;;;;;;4901772;29;20220;-90
2022/04/20 07:33:51;;;;;;;16.53;7.50;;;14.00;52.30;;;;;;4904741;29;20205;-91
2022/04/20 07:36:18;;;;;;;12.43;6.13;;;14.10;52.30;;;;;;4907699;29;20240;-90
2022/04/20 07:38:48;;;;;;;14.10;6.83;;;14.20;52.40;;;;;;4907563;29;20204;-90
2022/04/20 07:41:17;;;;;;;16.80;7.03;;;14.20;52.10;;;;;;4899519;29;20212;-88
2022/04/20 07:43:45;;;;;;;18.97;8.00;;;14.30;52.20;;;;;;4908929;29;20260;-93
2022/04/20 07:46:12;;;;;;;13.20;6.83;;;14.40;52.10;;;;;;4905793;29;20232;-90
2022/04/20 07:48:41;;;;;;;15.93;7.30;;;14.50;52.00;;;;;;4919641;29;20209;-91
2022/04/20 07:51:11;;;;;;;15.70;6.77;;;14.50;51.70;;;;;;4917208;29;20209;-93
2022/04/20 07:53:38;;;;;;;13.73;7.53;;;14.60;51.80;;;;;;4912688;29;20213;-89
2022/04/20 07:56:06;;;;;;;18.73;7.80;;;14.70;51.50;;;;;;4915426;29;20236;-92
2022/04/20 07:58:33;;;;;;;18.10;7.77;;;14.80;51.40;;;;;;4920878;29;20909;-91
2022/04/20 08:01:00;;;;;;;14.50;7.03;;;14.90;51.40;;;;;;4912114;29;20726;-93
2022/04/20 08:03:27;;;;;;;10.67;5.93;;;15.00;51.40;;;;;;4912523;29;20725;-90
2022/04/20 08:05:56;;;;;;;20.97;8.97;;;15.10;51.40;;;;;;4909421;29;20219;-90
2022/04/20 08:08:26;;;;;;;16.70;7.30;;;15.20;51.30;;;;;;4905855;29;20207;-88
2022/04/20 08:10:53;;;;;;;14.13;6.77;;;15.30;51.00;;;;;;4904826;29;20212;-90
2022/04/20 08:16:06;;;;;;;22.87;8.33;;;15.50;50.90;;;;;;4898138;29;20234;-89
2022/04/20 08:18:40;;;;;;;11.13;6.27;;;15.60;50.70;;;;;;4902405;29;20207;-89
2022/04/20 08:21:07;;;;;;;17.87;7.97;;;15.70;51.20;;;;;;4915177;29;20577;-90
2022/04/20 08:23:37;;;;;;;13.93;6.27;;;15.80;50.50;;;;;;4902626;29;20340;-90
2022/04/20 08:26:04;;;;;;;20.87;8.10;;;15.90;50.10;;;;;;4900044;29;20275;-91
2022/04/20 08:28:32;;;;;;;15.93;6.97;;;16.00;50.20;;;;;;4911330;29;20324;-92
2022/04/20 08:30:59;;;;;;;12.03;6.07;;;16.10;50.10;;;;;;4911379;29;20204;-89
2022/04/20 08:33:26;;;;;;;16.70;7.53;;;16.20;49.90;;;;;;4909907;29;20215;-91
2022/04/20 08:35:53;;;;;;;15.30;7.00;;;16.40;50.00;;;;;;4908522;29;20218;-91
2022/04/20 08:38:20;;;;;;;11.90;5.77;;;16.50;50.70;;;;;;4910797;29;20241;-88
2022/04/20 08:40:50;;;;;;;16.07;6.93;;;16.50;49.30;;;;;;4911480;29;20319;-89
2022/04/20 08:43:17;;;;;;;13.13;6.40;;;16.60;48.80;;;;;;4908510;29;20256;-94
2022/04/20 08:45:50;;;;;;;13.50;6.10;;;16.80;49.90;;;;;;4910752;29;20287;-95
2022/04/20 08:48:32;;;;;;;17.40;7.43;;;16.90;49.30;;;;;;4906491;29;20205;-90
2022/04/20 08:51:05;;;;;;;15.33;6.87;;;17.00;49.00;;;;;;4924287;29;20667;-94
2022/04/20 08:53:32;;;;;;;29.17;11.07;;;17.20;48.80;;;;;;4915304;23;20303;-94
2022/04/20 08:59:17;;;;;;;10.03;5.80;;;17.50;48.10;;;;;;4907697;29;20432;-93
2022/04/20 09:01:49;;;;;;;12.03;5.47;;;17.70;48.00;;;;;;4909296;29;20208;-91
2022/04/20 09:04:22;;;;;;;11.03;6.50;;;17.90;47.40;;;;;;4910185;29;20331;-95
2022/04/20 09:06:51;;;;;;;8.93;5.50;;;18.10;47.00;;;;;;4903192;29;20304;-93
2022/04/20 09:09:19;;;;;;;16.73;7.87;;;18.40;46.80;;;;;;4901692;29;20296;-93
2022/04/20 09:11:49;;;;;;;10.13;5.33;;;18.50;45.80;;;;;;4915013;29;20534;-94
2022/04/20 09:14:16;;;;;;;11.70;6.37;;;18.70;46.00;;;;;;4897893;29;20289;-92
2022/04/20 09:16:44;;;;;;;11.30;5.83;;;18.90;46.00;;;;;;4897090;29;20210;-91
2022/04/20 09:19:12;;;;;;;10.80;5.30;;;19.20;45.00;;;;;;4904555;29;20237;-92
2022/04/20 09:21:41;;;;;;;12.20;6.93;;;19.30;45.10;;;;;;4907736;29;20204;-91
2022/04/20 09:24:09;;;;;;;14.07;7.47;;;19.50;44.90;;;;;;4901090;29;20229;-91
2022/04/20 09:26:52;;;;;;;11.30;6.57;;;19.70;45.00;;;;;;4902371;29;20248;-93
2022/04/20 09:29:19;;;;;;;12.53;6.53;;;19.90;43.00;;;;;;4884520;29;20787;-95
2022/04/20 09:31:48;;;;;;;11.23;5.67;;;20.10;44.20;;;;;;4881248;29;20294;-92
2022/04/20 09:34:35;;;;;;;12.47;6.03;;;20.30;44.60;;;;;;4880810;29;22889;-92
2022/04/20 09:37:13;;;;;;;13.03;5.87;;;20.50;42.50;;;;;;4884764;29;20232;-91
2022/04/20 09:39:46;;;;;;;14.57;7.53;;;20.70;43.10;;;;;;4892592;29;20288;-92
2022/04/20 09:42:15;;;;;;;9.87;6.37;;;20.90;43.00;;;;;;4896866;29;20205;-93
2022/04/20 09:44:54;;;;;;;13.20;6.23;;;21.10;43.20;;;;;;4884791;29;20639;-92
2022/04/20 09:50:08;;;;;;;10.77;6.30;;;21.40;42.70;;;;;;4891876;29;20291;-93
2022/04/20 09:52:41;;;;;;;11.43;6.47;;;21.60;42.00;;;;;;4897763;29;20213;-90
2022/04/20 09:55:11;;;;;;;8.57;5.60;;;21.80;41.00;;;;;;4897124;29;20673;-90
2022/04/20 09:57:44;;;;;;;10.47;6.13;;;21.90;42.10;;;;;;4897919;29;20313;-91
2022/04/20 10:00:12;;;;;;;8.63;5.80;;;22.00;40.50;;;;;;4897131;29;20627;-90
2022/04/20 10:02:44;;;;;;;15.17;7.80;;;22.20;41.10;;;;;;4894781;29;20224;-90
2022/04/20 10:05:12;;;;;;;12.83;6.13;;;22.20;39.00;;;;;;4895027;29;20265;-91
2022/04/20 10:07:40;;;;;;;12.80;6.93;;;22.30;39.20;;;;;;4894251;29;20325;-93
2022/04/20 10:10:09;;;;;;;12.13;6.33;;;22.50;38.70;;;;;;4881988;29;20239;-91
2022/04/20 10:12:39;;;;;;;11.87;6.57;;;22.50;39.40;;;;;;4889546;29;20216;-91
2022/04/20 10:17:57;;;;;;;9.37;5.27;;;22.70;37.70;;;;;;4888401;29;20208;-91
2022/04/20 10:20:28;;;;;;;7.07;4.67;;;22.80;36.60;;;;;;4896276;29;20321;-96
2022/04/20 10:22:58;;;;;;;9.37;5.07;;;22.80;37.30;;;;;;4899327;29;20281;-95
2022/04/20 10:25:28;;;;;;;10.37;4.93;;;22.90;37.50;;;;;;4899472;29;20224;-94
2022/04/20 10:28:03;;;;;;;10.63;4.77;;;23.00;36.60;;;;;;4897650;29;20261;-91
2022/04/20 10:30:44;;;;;;;11.57;6.57;;;23.10;37.30;;;;;;4896244;29;20557;-92
2022/04/20 10:33:19;;;;;;;6.87;4.20;;;23.10;36.70;;;;;;4898603;29;20277;-93
2022/04/20 10:35:56;;;;;;;11.60;5.83;;;23.20;37.30;;;;;;4899671;29;20289;-93
2022/04/20 10:38:24;;;;;;;10.40;5.20;;;23.30;37.30;;;;;;4909641;29;20205;-93
2022/04/20 10:41:03;;;;;;;8.70;4.70;;;23.30;36.40;;;;;;4909972;29;20229;-92
2022/04/20 10:43:34;;;;;;;12.27;5.43;;;23.40;35.10;;;;;;4899632;29;20281;-92
2022/04/20 10:46:07;;;;;;;6.80;4.23;;;23.50;36.60;;;;;;4897522;29;20260;-90
2022/04/20 10:48:49;;;;;;;7.63;5.13;;;23.60;37.10;;;;;;4900843;29;20314;-93
2022/04/20 10:51:24;;;;;;;7.93;5.37;;;23.70;35.60;;;;;;4896966;29;20206;-92
2022/04/20 10:53:52;;;;;;;13.57;5.10;;;23.80;36.00;;;;;;4904875;29;20369;-91
2022/04/20 10:56:21;;;;;;;11.00;5.73;;;23.90;36.40;;;;;;4900273;29;20233;-93
2022/04/20 10:59:10;;;;;;;8.37;5.00;;;24.00;36.50;;;;;;4897105;29;20262;-92
2022/04/20 11:02:11;;;;;;;11.10;5.40;;;24.10;37.20;;;;;;4893105;29;20216;-92
2022/04/20 11:04:41;;;;;;;13.17;6.37;;;24.10;35.70;;;;;;4893734;29;20316;-94
2022/04/20 11:07:19;;;;;;;9.30;5.07;;;24.30;35.70;;;;;;4906316;29;20205;-94
2022/04/20 11:10:08;;;;;;;8.17;5.23;;;24.30;35.40;;;;;;4916577;29;20292;-92
2022/04/20 11:18:42;;;;;;;8.67;5.03;;;24.50;34.70;;;;;;4842833;29;20203;-96
2022/04/20 11:21:27;;;;;;;9.83;5.87;;;24.50;35.90;;;;;;4896699;29;20239;-94
2022/04/20 11:24:03;;;;;;;6.20;4.50;;;24.60;34.30;;;;;;4879199;29;20321;-95
2022/04/20 11:26:34;;;;;;;9.57;4.93;;;24.70;34.90;;;;;;4871947;29;20202;-89
2022/04/20 11:29:13;;;;;;;10.87;5.43;;;24.70;33.90;;;;;;4900103;29;20667;-91
2022/04/20 11:31:43;;;;;;;8.87;5.40;;;24.70;33.30;;;;;;4880114;29;20750;-92
2022/04/20 11:34:14;;;;;;;7.63;4.80;;;24.70;34.00;;;;;;4884319;29;20249;-94
2022/04/20 11:36:43;;;;;;;10.90;5.00;;;24.60;33.60;;;;;;4895590;29;20220;-92
2022/04/20 11:39:11;;;;;;;7.77;5.47;;;24.60;33.90;;;;;;4890413;29;20209;-90
2022/04/20 11:41:45;;;;;;;11.17;4.87;;;24.60;33.80;;;;;;4882393;29;20206;-96
2022/04/20 11:44:22;;;;;;;9.30;5.67;;;24.60;34.50;;;;;;4899368;29;20385;-92
2022/04/20 11:46:50;;;;;;;13.80;7.10;;;24.70;33.80;;;;;;4906700;29;20216;-90
2022/04/20 11:49:19;;;;;;;7.87;5.23;;;24.70;34.50;;;;;;4880393;29;20209;-94
2022/04/20 11:51:53;;;;;;;11.80;6.87;;;24.80;34.30;;;;;;4895223;29;20210;-90
2022/04/20 11:54:21;;;;;;;10.10;6.47;;;24.80;34.30;;;;;;4894432;29;20670;-93
2022/04/20 11:56:48;;;;;;;10.23;7.27;;;24.90;33.90;;;;;;4894100;29;20249;-96
2022/04/20 11:59:18;;;;;;;18.23;8.70;;;24.90;33.80;;;;;;4894010;29;20246;-91
2022/04/20 12:01:47;;;;;;;6.97;5.77;;;24.90;34.10;;;;;;4909346;29;20287;-91
2022/04/20 12:04:15;;;;;;;8.20;5.83;;;25.00;34.20;;;;;;4914503;29;20233;-92
2022/04/20 12:06:52;;;;;;;9.53;6.17;;;25.00;34.40;;;;;;4902396;29;20198;-92
2022/04/20 12:09:21;;;;;;;8.77;5.23;;;25.10;33.20;;;;;;4894487;29;20257;-90
2022/04/20 12:11:55;;;;;;;13.10;5.97;;;25.20;33.70;;;;;;4895498;29;20300;-92
2022/04/20 12:14:25;;;;;;;8.10;5.07;;;25.20;33.80;;;;;;4895983;29;20296;-95
2022/04/20 12:16:58;;;;;;;12.23;6.37;;;25.30;33.70;;;;;;4894702;29;20255;-91
2022/04/20 12:19:26;;;;;;;9.93;5.63;;;25.40;33.50;;;;;;4908781;29;20227;-92
2022/04/20 12:21:54;;;;;;;7.40;5.07;;;25.40;34.00;;;;;;4904927;29;20225;-93
2022/04/20 12:24:25;;;;;;;11.40;5.77;;;25.50;33.30;;;;;;4893436;29;20702;-92
2022/04/20 12:26:56;;;;;;;11.53;7.07;;;25.50;33.00;;;;;;4894720;29;20308;-92
2022/04/20 12:29:27;;;;;;;11.87;6.70;;;25.70;33.80;;;;;;4892556;29;20296;-89
2022/04/20 12:31:55;;;;;;;6.70;5.00;;;25.80;33.40;;;;;;4890622;29;20210;-90
2022/04/20 12:34:24;;;;;;;8.40;5.63;;;25.80;32.50;;;;;;4893905;29;20206;-93
2022/04/20 12:37:07;;;;;;;6.93;4.57;;;25.90;33.60;;;;;;4905800;29;20215;-90
2022/04/20 12:39:39;;;;;;;10.20;5.60;;;26.00;32.40;;;;;;4895569;29;20219;-91
2022/04/20 12:42:09;;;;;;;7.80;5.43;;;26.00;32.40;;;;;;4905620;29;20312;-92
2022/04/20 12:44:46;;;;;;;7.97;4.87;;;26.00;32.40;;;;;;4894785;29;20293;-91
2022/04/20 12:47:38;;;;;;;6.33;4.73;;;26.00;32.40;;;;;;4893096;29;20205;-92
2022/04/20 12:50:33;;;;;;;9.43;5.90;;;26.10;32.50;;;;;;4894879;29;20248;-92
2022/04/20 12:53:01;;;;;;;10.07;5.50;;;26.10;32.10;;;;;;4905119;29;20205;-90
2022/04/20 12:55:37;;;;;;;10.80;6.63;;;26.20;31.90;;;;;;4912706;29;20227;-91
2022/04/20 13:03:41;;;;;;;6.57;4.70;;;26.30;32.50;;;;;;4875485;29;20325;-91
2022/04/20 13:06:11;;;;;;;7.70;5.50;;;26.30;31.10;;;;;;4879886;29;20733;-88
2022/04/20 13:08:41;;;;;;;10.67;5.97;;;26.30;31.00;;;;;;4895717;29;20209;-93
2022/04/20 13:11:14;;;;;;;11.40;6.30;;;26.30;31.60;;;;;;4883186;29;20216;-89
2022/04/20 13:13:41;;;;;;;8.93;5.67;;;26.30;31.40;;;;;;4898193;29;20213;-91
2022/04/20 13:16:10;;;;;;;9.20;5.73;;;26.30;32.10;;;;;;4896234;29;20221;-94
2022/04/20 13:18:38;;;;;;;7.17;4.47;;;26.40;31.80;;;;;;4897092;29;20662;-89
2022/04/20 13:21:05;;;;;;;7.90;5.53;;;26.40;31.90;;;;;;4895781;29;20290;-89
2022/04/20 13:23:32;;;;;;;8.33;5.67;;;26.50;31.60;;;;;;4898160;29;20669;-90
2022/04/20 13:28:46;;;;;;;7.87;5.10;;;26.60;31.50;;;;;;4898412;29;20368;-92
2022/04/20 13:31:13;;;;;;;12.23;6.37;;;26.60;31.30;;;;;;4894924;29;20209;-91
2022/04/20 13:33:42;;;;;;;9.87;5.77;;;26.60;31.40;;;;;;4904648;29;20693;-91